createdAt,value
2018-08-04T00:01:27.574Z,71.80
2018-08-04T00:03:57.670Z,72.40
2018-08-04T00:06:27.731Z,73.40
2018-08-04T00:08:57.652Z,73.30
2018-08-04T00:11:27.701Z,73.40
2018-08-04T00:13:57.712Z,73.40
2018-08-04T00:16:27.617Z,73.30
2018-08-04T00:18:57.850Z,73.10
2018-08-04T00:21:27.850Z,72.90
2018-08-04T00:23:57.795Z,73.00
2018-08-04T00:26:31.543Z,73.20
2018-08-04T00:29:01.995Z,73.30
2018-08-04T00:31:33.069Z,73.40
2018-08-04T00:34:02.430Z,73.80
2018-08-04T00:36:31.943Z,74.00
2018-08-04T00:39:01.328Z,74.00
2018-08-04T00:41:30.735Z,73.70
2018-08-04T00:44:00.120Z,73.70
2018-08-04T00:48:58.599Z,73.60
2018-08-04T00:51:27.929Z,73.70
2018-08-04T00:53:57.918Z,73.50
2018-08-04T00:56:27.949Z,73.70
2018-08-04T00:58:57.865Z,73.80
2018-08-04T01:01:27.888Z,73.80
2018-08-04T01:03:57.947Z,73.80
2018-08-04T01:06:27.944Z,74.00
2018-08-04T01:08:57.947Z,74.20
2018-08-04T01:11:28.010Z,74.60
2018-08-04T01:13:57.940Z,74.80
2018-08-04T01:16:27.842Z,74.60
2018-08-04T01:18:58.079Z,74.80
2018-08-04T01:21:27.934Z,74.60
2018-08-04T01:23:57.981Z,75.50
2018-08-04T01:26:27.998Z,74.80
2018-08-04T01:28:58.194Z,75.40
2018-08-04T01:31:28.156Z,75.30
2018-08-04T01:33:57.941Z,75.20
2018-08-04T01:36:27.962Z,75.30
2018-08-04T01:38:57.897Z,75.30
2018-08-04T01:41:27.969Z,75.20
2018-08-04T01:43:58.109Z,75.20
2018-08-04T01:46:27.916Z,75.60
2018-08-04T01:48:58.003Z,75.50
2018-08-04T01:51:27.942Z,75.50
2018-08-04T01:53:58.057Z,75.40
2018-08-04T01:56:28.186Z,75.50
2018-08-04T01:58:57.997Z,75.60
2018-08-04T02:01:28.106Z,75.70
2018-08-04T02:03:57.994Z,76.10
2018-08-04T02:06:27.998Z,75.80
2018-08-04T02:08:58.033Z,75.90
2018-08-04T02:11:28.048Z,76.00
2018-08-04T02:13:58.590Z,76.00
2018-08-04T02:16:28.108Z,76.20
2018-08-04T02:18:58.097Z,76.90
2018-08-04T02:21:28.030Z,76.20
2018-08-04T02:23:58.011Z,76.20
2018-08-04T02:26:28.175Z,76.30
2018-08-04T02:28:58.090Z,76.10
2018-08-04T02:31:28.123Z,76.10
2018-08-04T02:33:58.078Z,76.40
2018-08-04T02:36:28.083Z,77.10
2018-08-04T02:38:58.230Z,76.70
2018-08-04T02:43:57.880Z,76.50
2018-08-04T02:46:28.187Z,76.50
2018-08-04T02:48:58.047Z,76.60
2018-08-04T02:51:28.107Z,77.40
2018-08-04T02:53:58.096Z,76.80
2018-08-04T02:56:28.139Z,77.00
2018-08-04T02:58:58.131Z,76.90
2018-08-04T03:01:28.440Z,77.40
2018-08-04T03:03:58.101Z,77.20
2018-08-04T03:06:28.102Z,77.60
2018-08-04T03:08:58.242Z,77.20
2018-08-04T03:11:28.179Z,77.00
2018-08-04T03:13:58.174Z,76.90
2018-08-04T03:16:28.194Z,76.70
2018-08-04T03:19:00.271Z,76.50
2018-08-04T03:21:30.635Z,76.30
2018-08-04T03:24:00.019Z,76.60
2018-08-04T03:26:29.565Z,76.70
2018-08-04T03:28:58.911Z,76.90
2018-08-04T03:31:28.271Z,77.20
2018-08-04T03:33:58.249Z,77.30
2018-08-04T03:36:28.203Z,77.90
2018-08-04T03:38:58.177Z,77.80
2018-08-04T03:41:28.463Z,77.90
2018-08-04T03:43:58.214Z,77.70
2018-08-04T03:46:28.196Z,78.40
2018-08-04T03:51:27.970Z,77.50
2018-08-04T03:53:58.453Z,78.10
2018-08-04T03:56:28.257Z,78.00
2018-08-04T03:58:58.277Z,78.10
2018-08-04T04:01:28.470Z,78.60
2018-08-04T04:03:58.285Z,78.10
2018-08-04T04:06:28.310Z,78.20
2018-08-04T04:08:58.354Z,78.10
2018-08-04T04:11:28.235Z,78.40
2018-08-04T04:13:58.214Z,78.30
2018-08-04T04:16:28.276Z,79.60
2018-08-04T04:18:58.314Z,78.50
2018-08-04T04:21:28.466Z,78.70
2018-08-04T04:23:58.518Z,79.20
2018-08-04T04:26:28.351Z,79.60
2018-08-04T04:28:58.253Z,79.60
2018-08-04T04:31:28.329Z,79.20
2018-08-04T04:33:58.342Z,79.10
2018-08-04T04:36:28.349Z,78.90
2018-08-04T04:38:58.278Z,79.90
2018-08-04T04:41:28.458Z,79.10
2018-08-04T04:43:58.305Z,79.70
2018-08-04T04:46:28.372Z,78.50
2018-08-04T04:48:58.330Z,79.10
2018-08-04T04:51:28.415Z,78.90
2018-08-04T04:53:58.335Z,79.00
2018-08-04T04:56:28.302Z,78.60
2018-08-04T04:58:58.441Z,78.40
2018-08-04T05:01:28.513Z,78.40
2018-08-04T05:03:58.477Z,78.40
2018-08-04T05:06:28.563Z,78.00
2018-08-04T05:11:28.274Z,78.20
2018-08-04T05:13:58.774Z,77.60
2018-08-04T05:16:28.426Z,78.60
2018-08-04T05:18:58.448Z,77.60
2018-08-04T05:21:28.534Z,78.70
2018-08-04T05:23:58.482Z,79.00
2018-08-04T05:26:28.463Z,79.10
2018-08-04T05:28:58.621Z,77.70
2018-08-04T05:31:28.508Z,78.90
2018-08-04T05:33:58.392Z,78.70
2018-08-04T05:36:28.495Z,79.00
2018-08-04T05:38:58.435Z,78.60
2018-08-04T05:41:28.481Z,79.10
2018-08-04T05:43:58.630Z,79.30
2018-08-04T05:46:28.594Z,79.10
2018-08-04T05:48:58.482Z,79.60
2018-08-04T05:51:28.508Z,78.60
2018-08-04T05:53:58.584Z,78.20
2018-08-04T05:56:28.597Z,78.50
2018-08-04T05:58:58.599Z,78.70
2018-08-04T06:01:28.606Z,78.20
2018-08-04T06:03:58.607Z,79.00
2018-08-04T06:06:28.546Z,78.30
2018-08-04T06:11:28.387Z,78.90
2018-08-04T06:13:58.681Z,78.30
2018-08-04T06:16:28.529Z,79.20
2018-08-04T06:18:58.680Z,78.40
2018-08-04T06:21:28.528Z,78.30
2018-08-04T06:23:58.600Z,78.30
2018-08-04T06:26:32.430Z,78.50
2018-08-04T06:29:02.494Z,78.30
2018-08-04T06:31:32.182Z,78.30
2018-08-04T06:34:01.538Z,78.00
2018-08-04T06:36:30.886Z,78.10
2018-08-04T06:39:00.222Z,77.50
2018-08-04T06:41:29.630Z,75.50
2018-08-04T06:43:59.006Z,73.30
2018-08-04T06:46:28.631Z,73.40
2018-08-04T06:48:58.927Z,73.20
2018-08-04T06:51:28.601Z,72.00
2018-08-04T06:53:58.586Z,70.90
2018-08-04T06:56:28.657Z,69.80
2018-08-04T06:58:58.608Z,69.30
2018-08-04T07:01:28.938Z,69.10
2018-08-04T07:03:58.666Z,68.10
2018-08-04T07:06:28.646Z,67.90
2018-08-04T07:08:58.933Z,66.40
2018-08-04T07:11:28.637Z,66.20
2018-08-04T07:13:58.680Z,65.80
2018-08-04T07:16:28.722Z,65.50
2018-08-04T07:18:58.790Z,65.40
2018-08-04T07:21:28.670Z,65.10
2018-08-04T07:23:58.795Z,63.70
2018-08-04T07:26:28.764Z,63.50
2018-08-04T07:28:58.691Z,62.40
2018-08-04T07:31:28.758Z,62.30
2018-08-04T07:33:58.795Z,61.60
2018-08-04T07:36:28.713Z,61.20
2018-08-04T07:38:58.978Z,61.50
2018-08-04T07:41:28.819Z,60.20
2018-08-04T07:43:58.792Z,59.10
2018-08-04T07:46:28.766Z,58.10
2018-08-04T07:48:58.722Z,57.90
2018-08-04T07:51:28.743Z,57.70
2018-08-04T07:53:58.780Z,57.30
2018-08-04T07:56:28.758Z,57.50
2018-08-04T07:58:59.055Z,57.00
2018-08-04T08:01:28.869Z,56.80
2018-08-04T08:03:58.874Z,57.10
2018-08-04T08:06:30.753Z,57.10
2018-08-04T08:09:00.123Z,56.30
2018-08-04T08:11:29.476Z,57.20
2018-08-04T08:16:28.700Z,55.80
2018-08-04T08:18:58.784Z,55.60
2018-08-04T08:21:28.808Z,55.30
2018-08-04T08:23:58.881Z,54.40
2018-08-04T08:26:28.807Z,55.20
2018-08-04T08:28:58.849Z,55.30
2018-08-04T08:31:29.046Z,54.20
2018-08-04T08:33:58.983Z,54.10
2018-08-04T08:36:28.890Z,53.80
2018-08-04T08:38:58.883Z,53.00
2018-08-04T08:41:28.880Z,51.80
2018-08-04T08:47:02.892Z,51.90
2018-08-04T08:49:32.206Z,52.00
2018-08-04T08:52:01.617Z,50.50
2018-08-04T08:54:30.934Z,49.10
2018-08-04T08:57:00.303Z,49.30
2018-08-04T08:59:29.665Z,48.80
2018-08-04T09:01:59.062Z,48.50
2018-08-04T09:04:28.946Z,48.40
2018-08-04T09:06:58.905Z,48.70
2018-08-04T09:09:29.074Z,48.70
2018-08-04T09:11:59.086Z,48.90
2018-08-04T09:14:29.022Z,48.10
2018-08-04T09:16:59.454Z,48.60
2018-08-04T09:19:28.988Z,48.90
2018-08-04T09:21:59.066Z,48.70
2018-08-04T09:24:29.062Z,49.40
2018-08-04T09:26:59.119Z,48.00
2018-08-04T09:29:29.004Z,48.80
2018-08-04T09:31:59.056Z,48.10
2018-08-04T09:34:29.013Z,48.20
2018-08-04T09:36:59.022Z,48.80
2018-08-04T09:39:28.999Z,49.30
2018-08-04T09:41:58.949Z,49.20
2018-08-04T09:44:29.108Z,50.30
2018-08-04T09:46:59.011Z,48.80
2018-08-04T09:49:28.958Z,47.70
2018-08-04T09:51:59.111Z,46.80
2018-08-04T09:56:58.914Z,47.50
2018-08-04T09:59:29.341Z,48.20
2018-08-04T10:04:33.425Z,45.00
2018-08-04T10:07:02.764Z,45.00
2018-08-04T10:09:32.186Z,45.60
2018-08-04T10:12:01.715Z,43.80
2018-08-04T10:14:31.491Z,43.00
2018-08-04T10:17:00.847Z,40.80
2018-08-04T10:19:30.201Z,41.60
2018-08-04T10:21:59.859Z,40.80
2018-08-04T10:24:29.228Z,41.80
2018-08-04T10:26:59.121Z,40.30
2018-08-04T10:29:29.125Z,40.30
2018-08-04T10:31:59.469Z,41.30
2018-08-04T10:34:29.128Z,40.30
2018-08-04T10:36:59.185Z,41.40
2018-08-04T10:39:29.433Z,41.40
2018-08-04T10:41:59.317Z,40.40
2018-08-04T10:44:29.240Z,41.40
2018-08-04T10:46:59.125Z,41.60
2018-08-04T10:51:59.090Z,43.00
2018-08-04T10:54:29.195Z,41.40
2018-08-04T10:56:59.244Z,39.40
2018-08-04T10:59:29.146Z,39.10
2018-08-04T11:01:59.279Z,38.70
2018-08-04T11:04:29.461Z,40.20
2018-08-04T11:06:59.206Z,38.90
2018-08-04T11:09:29.246Z,38.40
2018-08-04T11:11:59.292Z,38.20
2018-08-04T11:14:29.214Z,39.90
2018-08-04T11:16:59.270Z,40.60
2018-08-04T11:19:29.406Z,41.10
2018-08-04T11:21:59.363Z,39.40
2018-08-04T11:26:59.099Z,38.90
2018-08-04T11:29:29.262Z,40.80
2018-08-04T11:31:59.266Z,43.20
2018-08-04T11:34:29.490Z,42.40
2018-08-04T11:36:59.219Z,41.90
2018-08-04T11:39:29.888Z,42.40
2018-08-04T11:41:59.290Z,42.50
2018-08-04T11:44:29.315Z,44.20
2018-08-04T11:46:59.324Z,45.80
2018-08-04T11:49:29.658Z,46.00
2018-08-04T11:51:59.390Z,44.20
2018-08-04T11:56:59.195Z,41.40
2018-08-04T11:59:29.358Z,42.60
2018-08-04T12:01:59.375Z,44.30
2018-08-04T12:04:29.366Z,44.50
2018-08-04T12:06:59.464Z,44.70
2018-08-04T12:09:29.379Z,44.80
2018-08-04T12:11:59.392Z,44.60
2018-08-04T12:14:29.506Z,44.50
2018-08-04T12:16:59.397Z,44.00
2018-08-04T12:19:29.379Z,45.20
2018-08-04T12:21:59.218Z,45.40
2018-08-04T12:24:29.556Z,46.10
2018-08-04T12:26:59.394Z,46.00
2018-08-04T12:29:29.546Z,45.20
2018-08-04T12:31:59.385Z,46.00
2018-08-04T12:34:29.410Z,46.90
2018-08-04T12:36:59.341Z,47.30
2018-08-04T12:39:29.492Z,47.90
2018-08-04T12:41:59.354Z,47.70
2018-08-04T12:44:29.380Z,47.70
2018-08-04T12:46:59.326Z,47.50
2018-08-04T12:49:29.431Z,47.70
2018-08-04T12:51:59.378Z,48.90
2018-08-04T12:54:29.439Z,49.20
2018-08-04T12:56:59.378Z,49.20
2018-08-04T12:59:29.408Z,48.50
2018-08-04T13:01:59.482Z,49.00
2018-08-04T13:04:29.426Z,49.30
2018-08-04T13:06:59.714Z,49.40
2018-08-04T13:09:29.466Z,49.10
2018-08-04T13:11:59.532Z,48.90
2018-08-04T13:14:29.516Z,49.60
2018-08-04T13:16:59.421Z,49.70
2018-08-04T13:19:29.510Z,49.00
2018-08-04T13:21:59.756Z,49.20
2018-08-04T13:24:29.427Z,49.00
2018-08-04T13:26:59.448Z,48.20
2018-08-04T13:29:29.769Z,48.50
2018-08-04T13:31:59.589Z,47.60
2018-08-04T13:34:29.467Z,47.40
2018-08-04T13:36:59.606Z,48.10
2018-08-04T13:39:29.595Z,48.10
2018-08-04T13:41:59.526Z,48.50
2018-08-04T13:44:29.624Z,48.40
2018-08-04T13:49:29.521Z,48.70
2018-08-04T13:51:59.598Z,49.50
2018-08-04T13:54:28.997Z,48.80
2018-08-04T13:56:59.498Z,48.70
2018-08-04T13:59:29.579Z,48.60
2018-08-04T14:01:59.829Z,48.60
2018-08-04T14:09:29.470Z,49.00
2018-08-04T14:11:59.688Z,48.30
2018-08-04T14:14:29.790Z,49.10
2018-08-04T14:16:59.598Z,48.80
2018-08-04T14:19:29.628Z,49.80
2018-08-04T14:24:29.795Z,49.70
2018-08-04T14:26:59.722Z,50.40
2018-08-04T14:29:29.602Z,51.10
2018-08-04T14:31:59.606Z,50.30
2018-08-04T14:34:29.694Z,50.30
2018-08-04T14:36:59.684Z,51.50
2018-08-04T14:39:29.618Z,52.10
2018-08-04T14:41:59.799Z,52.60
2018-08-04T14:44:29.706Z,50.90
2018-08-04T14:46:59.673Z,51.70
2018-08-04T14:49:29.872Z,51.20
2018-08-04T14:51:59.590Z,50.30
2018-08-04T14:54:29.735Z,51.30
2018-08-04T14:56:59.790Z,50.60
2018-08-04T14:59:29.704Z,51.50
2018-08-04T15:01:59.685Z,50.80
2018-08-04T15:04:29.784Z,51.60
2018-08-04T15:06:59.737Z,52.10
2018-08-04T15:09:29.835Z,53.00
2018-08-04T15:11:59.872Z,52.50
2018-08-04T15:14:29.940Z,51.60
2018-08-04T15:16:59.847Z,51.00
2018-08-04T15:19:29.758Z,51.30
2018-08-04T15:21:59.856Z,51.50
2018-08-04T15:24:29.883Z,51.60
2018-08-04T15:26:59.904Z,51.50
2018-08-04T15:29:29.767Z,51.80
2018-08-04T15:31:59.812Z,51.90
2018-08-04T15:34:30.181Z,52.50
2018-08-04T15:36:59.948Z,52.80
2018-08-04T15:39:29.890Z,52.40
2018-08-04T15:42:06.436Z,52.10
2018-08-04T15:44:35.850Z,51.40
2018-08-04T15:47:05.204Z,51.90
2018-08-04T15:52:03.707Z,52.40
2018-08-04T15:54:33.047Z,52.60
2018-08-04T15:57:02.419Z,52.50
2018-08-04T15:59:32.110Z,52.90
2018-08-04T16:02:01.518Z,52.80
2018-08-04T16:04:30.946Z,52.80
2018-08-04T16:07:00.317Z,53.40
2018-08-04T16:09:30.005Z,53.50
2018-08-04T16:11:59.857Z,53.20
2018-08-04T16:16:59.782Z,53.30
2018-08-04T16:19:29.984Z,53.80
2018-08-04T16:22:00.200Z,54.10
2018-08-04T16:26:59.784Z,54.40
2018-08-04T16:29:30.070Z,54.40
2018-08-04T16:31:59.990Z,54.70
2018-08-04T16:36:59.821Z,54.20
2018-08-04T16:39:30.095Z,54.50
2018-08-04T16:42:00.073Z,54.60
2018-08-04T16:44:30.415Z,54.70
2018-08-04T16:47:00.062Z,54.40
2018-08-04T16:52:00.140Z,54.20
2018-08-04T16:54:30.188Z,54.30
2018-08-04T16:57:00.110Z,54.20
2018-08-04T17:01:59.882Z,55.30
2018-08-04T17:04:30.118Z,55.90
2018-08-04T17:07:00.167Z,56.00
2018-08-04T17:09:30.124Z,56.20
2018-08-04T17:12:00.101Z,56.50
2018-08-04T17:14:30.264Z,56.40
2018-08-04T17:17:00.249Z,57.00
2018-08-04T17:19:30.255Z,56.90
2018-08-04T17:22:00.053Z,57.10
2018-08-04T17:24:30.174Z,57.70
2018-08-04T17:27:00.115Z,57.90
2018-08-04T17:29:30.028Z,58.00
2018-08-04T17:32:00.153Z,58.10
2018-08-04T17:34:30.271Z,58.00
2018-08-04T17:37:00.093Z,58.00
2018-08-04T17:40:16.920Z,58.20
2018-08-04T17:42:46.203Z,58.20
2018-08-04T17:45:15.503Z,58.30
2018-08-04T17:47:44.826Z,58.50
2018-08-04T17:50:14.110Z,58.60
2018-08-04T17:52:43.395Z,59.20
2018-08-04T17:55:12.749Z,60.40
2018-08-04T17:57:42.078Z,61.20
2018-08-04T18:00:11.421Z,61.40
2018-08-04T18:02:40.934Z,62.20
2018-08-04T18:05:10.354Z,61.10
2018-08-04T18:07:39.691Z,61.70
2018-08-04T18:10:09.281Z,61.90
2018-08-04T18:12:38.665Z,62.20
2018-08-04T18:15:08.386Z,62.50
2018-08-04T18:17:37.769Z,62.60
2018-08-04T18:20:07.358Z,63.60
2018-08-04T18:22:36.714Z,62.80
2018-08-04T18:27:35.131Z,62.60
2018-08-04T18:30:04.618Z,62.90
2018-08-04T18:32:33.960Z,63.00
2018-08-04T18:35:03.294Z,62.80
2018-08-04T18:37:32.669Z,62.80
2018-08-04T18:40:02.031Z,62.80
2018-08-04T18:42:31.580Z,62.80
2018-08-04T18:45:00.868Z,64.10
2018-08-04T18:47:30.276Z,63.30
2018-08-04T18:50:00.493Z,63.90
2018-08-04T18:52:30.319Z,63.80
2018-08-04T18:55:00.398Z,63.70
2018-08-04T18:57:30.369Z,63.70
2018-08-04T19:00:00.280Z,63.70
2018-08-04T19:02:30.297Z,63.90
2018-08-04T19:05:00.287Z,64.50
2018-08-04T19:07:30.348Z,64.50
2018-08-04T19:10:00.335Z,64.80
2018-08-04T19:12:30.558Z,65.20
2018-08-04T19:15:00.373Z,65.60
2018-08-04T19:17:30.294Z,66.10
2018-08-04T19:20:00.363Z,66.40
2018-08-04T19:22:30.435Z,66.90
2018-08-04T19:25:00.340Z,66.90
2018-08-04T19:27:30.395Z,66.80
2018-08-04T19:30:00.642Z,67.20
2018-08-04T19:32:30.352Z,67.10
2018-08-04T19:35:00.314Z,67.40
2018-08-04T19:37:30.362Z,67.20
2018-08-04T19:40:00.397Z,67.10
2018-08-04T19:42:30.450Z,67.60
2018-08-04T19:45:00.413Z,67.00
2018-08-04T19:47:30.455Z,67.20
2018-08-04T19:50:00.377Z,67.50
2018-08-04T19:52:30.390Z,67.60
2018-08-04T19:55:00.444Z,67.60
2018-08-04T19:57:30.430Z,68.20
2018-08-04T20:00:00.437Z,68.20
2018-08-04T20:02:30.495Z,68.40
2018-08-04T20:05:00.525Z,68.40
2018-08-04T20:07:30.397Z,69.30
2018-08-04T20:10:00.431Z,69.20
2018-08-04T20:12:30.432Z,69.00
2018-08-04T20:15:00.712Z,68.90
2018-08-04T20:17:30.519Z,69.10
2018-08-04T20:20:00.430Z,69.30
2018-08-04T20:22:30.450Z,69.40
2018-08-04T20:25:00.446Z,69.00
2018-08-04T20:27:30.462Z,68.70
2018-08-04T20:30:00.437Z,68.90
2018-08-04T20:32:30.606Z,68.50
2018-08-04T20:35:00.518Z,68.70
2018-08-04T20:37:30.624Z,68.70
2018-08-04T20:40:00.514Z,69.10
2018-08-04T20:42:30.506Z,69.00
2018-08-04T20:45:00.501Z,69.20
2018-08-04T20:47:30.617Z,69.20
2018-08-04T20:50:00.487Z,69.60
2018-08-04T20:52:30.515Z,69.40
2018-08-04T20:55:00.510Z,70.20
2018-08-04T20:57:30.489Z,69.40
2018-08-04T21:00:00.710Z,69.80
2018-08-04T21:02:36.809Z,69.90
2018-08-04T21:05:08.737Z,70.00
2018-08-04T21:07:43.939Z,70.20
2018-08-04T21:10:19.576Z,70.20
2018-08-04T21:12:54.216Z,70.30
2018-08-04T21:15:30.015Z,71.60
2018-08-04T21:18:06.683Z,70.70
2018-08-04T21:20:42.085Z,70.90
2018-08-04T21:23:17.343Z,71.00
2018-08-04T21:25:52.502Z,71.30
2018-08-04T21:28:27.960Z,71.30
2018-08-04T21:31:03.514Z,71.50
2018-08-04T21:33:39.352Z,71.60
2018-08-04T21:36:14.340Z,71.80
2018-08-04T21:38:49.473Z,71.70
2018-08-04T21:41:19.040Z,71.80
2018-08-04T21:43:48.331Z,72.10
2018-08-04T21:46:17.629Z,72.10
2018-08-04T21:48:46.890Z,72.70
2018-08-04T21:51:16.189Z,72.40
2018-08-04T21:53:45.514Z,72.50
2018-08-04T21:56:14.786Z,72.70
2018-08-04T21:58:44.079Z,72.30
2018-08-04T22:01:14.271Z,73.20
2018-08-04T22:03:44.682Z,73.30
2018-08-04T22:06:14.950Z,73.30
2018-08-04T22:09:01.466Z,73.50
2018-08-04T22:11:30.752Z,73.80
2018-08-04T22:14:00.677Z,74.80
2018-08-04T22:16:30.868Z,74.50
2018-08-04T22:19:00.670Z,75.50
2018-08-04T22:21:31.009Z,74.90
2018-08-04T22:24:00.750Z,74.90
2018-08-04T22:26:30.667Z,75.00
2018-08-04T22:29:00.869Z,75.00
2018-08-04T22:31:30.733Z,75.00
2018-08-04T22:34:00.773Z,74.90
2018-08-04T22:36:30.785Z,75.00
2018-08-04T22:39:00.793Z,74.90
2018-08-04T22:41:31.042Z,75.20
2018-08-04T22:44:00.746Z,75.10
2018-08-04T22:46:30.742Z,75.20
2018-08-04T22:49:00.764Z,75.20
2018-08-04T22:51:30.879Z,75.00
2018-08-04T22:54:00.802Z,75.10
2018-08-04T22:56:30.883Z,75.60
2018-08-04T22:59:00.901Z,75.70
2018-08-04T23:01:31.045Z,75.60
2018-08-04T23:04:00.785Z,75.70
2018-08-04T23:06:31.770Z,75.60
2018-08-04T23:09:01.100Z,75.90
2018-08-04T23:11:30.899Z,75.80
2018-08-04T23:14:00.885Z,75.80
2018-08-04T23:16:30.865Z,76.90
2018-08-04T23:19:00.805Z,76.20
2018-08-04T23:21:30.933Z,76.10
2018-08-04T23:24:01.120Z,76.10
2018-08-04T23:26:30.946Z,76.20
2018-08-04T23:29:00.967Z,76.30
2018-08-04T23:31:30.886Z,76.60
2018-08-04T23:34:00.892Z,77.20
2018-08-04T23:36:31.030Z,76.30
2018-08-04T23:39:00.918Z,76.30
2018-08-04T23:41:30.994Z,76.70
2018-08-04T23:44:01.022Z,76.70
2018-08-04T23:46:31.010Z,77.30
2018-08-04T23:49:01.051Z,77.10
2018-08-04T23:51:31.002Z,77.20
2018-08-04T23:54:01.058Z,77.80
2018-08-04T23:56:31.026Z,78.10
2018-08-04T23:59:01.010Z,79.20
